Time;durP1;ratioP1;P1;durP2;ratioP2;P2;SDS_P1;SDS_P2;PMS_P1;PMS_P2;Temp;Humidity;BMP_temperature;BMP_pressure;BME280_temperature;BME280_humidity;BME280_pressure;Samples;Min_cycle;Max_cycle;Signal;HPM_P1;HPM_P2
2022/09/14 08:47:06;;;;;;;3.50;3.20;;;22.50;77.70;;;;;;5091747;28;20536;-66
2022/09/14 08:49:45;;;;;;;4.30;2.93;;;22.80;71.40;;;;;;5031469;28;20449;-68
2022/09/14 08:52:37;;;;;;;3.03;2.70;;;23.00;71.50;;;;;;5091369;28;20454;-67
2022/09/14 08:55:40;;;;;;;3.17;2.63;;;23.20;70.00;;;;;;5091033;28;20460;-66
2022/09/14 08:58:34;;;;;;;3.93;2.37;;;23.50;69.00;;;;;;5091562;28;20467;-67
2022/09/14 09:01:36;;;;;;;3.00;2.70;;;23.70;68.40;;;;;;5091568;28;20377;-66
2022/09/14 09:04:41;;;;;;;7.73;2.90;;;23.90;68.00;;;;;;5091591;28;20407;-66
2022/09/14 09:07:10;;;;;;;6.70;2.70;;;24.10;67.40;;;;;;5087514;28;20409;-66
2022/09/14 09:09:53;;;;;;;3.00;2.20;;;24.20;67.20;;;;;;5069956;28;20450;-68
2022/09/14 09:13:01;;;;;;;3.70;2.47;;;24.40;66.90;;;;;;5052963;28;20413;-69
2022/09/14 09:15:32;;;;;;;5.63;2.80;;;24.50;66.70;;;;;;5028561;28;20839;-68
2022/09/14 09:18:20;;;;;;;4.43;2.70;;;24.50;66.90;;;;;;5013004;28;20432;-68
2022/09/14 09:20:57;;;;;;;4.50;2.60;;;24.60;66.60;;;;;;5012392;28;20427;-67
2022/09/14 09:23:28;;;;;;;4.93;2.40;;;24.60;66.70;;;;;;5012515;28;20458;-68
2022/09/14 09:25:59;;;;;;;3.40;2.17;;;24.60;66.50;;;;;;5011859;28;20431;-68
2022/09/14 09:28:28;;;;;;;4.07;2.57;;;24.60;66.50;;;;;;5027174;28;20415;-69
2022/09/14 09:30:59;;;;;;;7.13;2.43;;;24.60;66.30;;;;;;5010600;28;20686;-68
2022/09/14 09:33:27;;;;;;;4.03;2.63;;;24.70;66.40;;;;;;4995981;28;20896;-69
2022/09/14 09:35:54;;;;;;;6.93;2.60;;;24.70;66.20;;;;;;5027519;28;20538;-68
2022/09/14 09:38:25;;;;;;;5.43;2.73;;;24.70;66.00;;;;;;5027287;28;20404;-69
2022/09/14 09:41:20;;;;;;;4.57;2.33;;;24.70;66.00;;;;;;5011173;28;21052;-68
2022/09/14 09:44:08;;;;;;;2.80;2.50;;;24.70;65.90;;;;;;4993890;28;20539;-68
2022/09/14 09:46:56;;;;;;;3.63;2.10;;;24.80;65.90;;;;;;5036045;28;20478;-68
2022/09/14 09:49:38;;;;;;;3.67;2.40;;;24.80;65.80;;;;;;5035779;28;20426;-68
2022/09/14 09:52:15;;;;;;;4.70;2.07;;;24.80;65.80;;;;;;5032836;28;20923;-68
2022/09/14 09:54:50;;;;;;;5.80;2.87;;;24.80;66.30;;;;;;5028192;28;20498;-68
2022/09/14 09:57:33;;;;;;;3.50;2.40;;;24.90;66.30;;;;;;5020086;28;20410;-68
2022/09/14 10:00:25;;;;;;;3.80;2.50;;;24.90;66.10;;;;;;5051326;28;20422;-68
2022/09/14 10:02:56;;;;;;;4.57;2.33;;;24.90;66.00;;;;;;5015963;28;20408;-67
2022/09/14 10:05:35;;;;;;;2.70;2.40;;;24.90;65.80;;;;;;4998928;28;20462;-67
2022/09/14 10:08:06;;;;;;;3.57;2.80;;;24.90;65.80;;;;;;5026261;28;20775;-67
2022/09/14 10:10:37;;;;;;;3.60;2.97;;;24.90;65.70;;;;;;5019202;28;20411;-67
2022/09/14 10:13:17;;;;;;;3.00;2.50;;;24.80;65.70;;;;;;5036334;28;20399;-68
2022/09/14 10:15:45;;;;;;;4.87;2.53;;;24.80;65.70;;;;;;5020229;28;20817;-68
2022/09/14 10:18:18;;;;;;;2.53;2.33;;;24.80;65.70;;;;;;5035376;28;20494;-67
2022/09/14 10:21:07;;;;;;;3.40;2.50;;;24.80;65.60;;;;;;5035332;28;20423;-67
2022/09/14 10:23:37;;;;;;;3.17;2.67;;;24.80;65.60;;;;;;5036333;28;20438;-67
2022/09/14 10:26:18;;;;;;;2.80;2.60;;;24.70;65.70;;;;;;5018804;28;20478;-67
2022/09/14 10:28:47;;;;;;;3.93;2.90;;;24.70;65.90;;;;;;5034840;28;20503;-68
2022/09/14 10:31:30;;;;;;;2.60;2.40;;;24.70;65.80;;;;;;5018606;28;20510;-68
2022/09/14 10:33:57;;;;;;;2.67;2.20;;;24.70;65.80;;;;;;5023155;28;20450;-67
2022/09/14 10:36:50;;;;;;;4.27;2.60;;;24.70;65.80;;;;;;5034426;28;20411;-68
2022/09/14 10:39:35;;;;;;;2.60;2.40;;;24.70;65.80;;;;;;5049907;28;20771;-67
2022/09/14 10:42:22;;;;;;;2.37;2.17;;;24.70;65.80;;;;;;5035311;28;21184;-67
2022/09/14 10:45:14;;;;;;;4.63;2.90;;;24.70;65.80;;;;;;5036131;28;20502;-66
2022/09/14 10:48:30;;;;;;;2.77;2.47;;;24.70;65.90;;;;;;5055604;28;20441;-67
2022/09/14 10:51:17;;;;;;;3.93;2.47;;;24.60;65.90;;;;;;5046645;28;20435;-69
2022/09/14 10:54:12;;;;;;;2.70;2.50;;;24.60;66.10;;;;;;5036049;28;20530;-68
2022/09/14 10:57:12;;;;;;;3.63;2.60;;;24.60;66.30;;;;;;5036452;28;20887;-69
2022/09/14 11:00:11;;;;;;;2.60;2.40;;;24.60;67.40;;;;;;5055433;28;20484;-69
2022/09/14 11:03:10;;;;;;;3.23;2.97;;;24.70;67.50;;;;;;5038179;28;20411;-70
2022/09/14 11:06:05;;;;;;;3.47;3.17;;;24.80;67.30;;;;;;4974603;28;20516;-70
2022/09/14 11:08:44;;;;;;;3.50;3.20;;;24.80;68.10;;;;;;4988132;28;20508;-69
2022/09/14 11:11:28;;;;;;;3.83;2.90;;;24.90;68.50;;;;;;4946077;28;20477;-68
2022/09/14 11:14:31;;;;;;;6.53;3.37;;;24.80;68.40;;;;;;4974713;28;20879;-69
2022/09/14 11:17:35;;;;;;;5.47;3.00;;;24.90;69.40;;;;;;4975193;28;20465;-69
2022/09/14 11:20:37;;;;;;;5.60;2.97;;;24.90;69.50;;;;;;4945234;28;20430;-68
2022/09/14 11:23:30;;;;;;;7.10;3.30;;;24.90;69.40;;;;;;4965288;28;20428;-68
2022/09/14 11:26:10;;;;;;;4.87;2.77;;;25.00;69.30;;;;;;4975017;28;20800;-69
2022/09/14 11:29:02;;;;;;;4.90;3.30;;;25.00;69.50;;;;;;4974756;28;20406;-68
2022/09/14 11:31:54;;;;;;;5.93;3.43;;;25.10;69.50;;;;;;4974785;28;20855;-69
2022/09/14 11:34:37;;;;;;;4.13;3.80;;;25.10;69.40;;;;;;4974644;28;20534;-69
2022/09/14 11:37:09;;;;;;;5.10;3.63;;;25.20;69.70;;;;;;4974555;28;20422;-69
2022/09/14 11:40:01;;;;;;;3.30;3.00;;;25.20;69.70;;;;;;4974452;28;20442;-69
2022/09/14 11:42:44;;;;;;;5.27;3.73;;;25.20;69.40;;;;;;5000077;28;20427;-69
2022/09/14 11:45:24;;;;;;;3.37;3.00;;;25.20;69.50;;;;;;5030417;28;20561;-69
2022/09/14 11:48:00;;;;;;;3.70;2.80;;;25.20;69.20;;;;;;5030565;28;20428;-69
2022/09/14 11:50:43;;;;;;;2.70;2.50;;;25.20;69.50;;;;;;5030719;28;20416;-69
2022/09/14 11:53:14;;;;;;;4.37;3.07;;;25.30;69.10;;;;;;5029087;28;20400;-69
2022/09/14 11:55:51;;;;;;;4.03;2.57;;;25.20;69.40;;;;;;5014905;28;20427;-69
2022/09/14 11:58:25;;;;;;;4.40;2.97;;;25.40;69.10;;;;;;5023839;28;20441;-69
2022/09/14 12:01:29;;;;;;;4.93;3.07;;;25.30;69.10;;;;;;5020498;28;20487;-69
2022/09/14 12:04:14;;;;;;;6.37;2.73;;;25.40;68.50;;;;;;5014837;28;20446;-68
2022/09/14 12:06:54;;;;;;;5.70;3.10;;;25.50;68.50;;;;;;5014961;28;20463;-70
2022/09/14 12:09:23;;;;;;;5.27;3.70;;;25.50;68.50;;;;;;5014289;28;20454;-70
2022/09/14 12:11:57;;;;;;;6.10;2.70;;;25.50;68.40;;;;;;5014605;28;21071;-71
2022/09/14 12:14:39;;;;;;;4.30;2.83;;;25.40;68.50;;;;;;5030461;28;20539;-73
2022/09/14 12:17:27;;;;;;;4.97;2.90;;;25.40;68.70;;;;;;5014920;28;20556;-68
2022/09/14 12:20:24;;;;;;;7.67;3.50;;;25.40;68.70;;;;;;4987024;28;21042;-75
2022/09/14 12:22:49;;;;;;;3.97;3.00;;;25.60;68.20;;;;;;4982530;28;20437;-71
2022/09/14 12:25:21;;;;;;;4.67;3.23;;;25.50;68.20;;;;;;4968246;28;20462;-73
2022/09/14 12:27:50;;;;;;;4.33;2.70;;;25.50;68.30;;;;;;4944581;29;20258;-72
2022/09/14 12:30:54;;;;;;;4.33;2.80;;;25.50;68.20;;;;;;4904496;29;20427;-72
2022/09/14 12:33:35;;;;;;;3.93;3.00;;;25.60;68.10;;;;;;4937508;29;20438;-72
2022/09/14 12:36:45;;;;;;;6.67;3.50;;;25.60;67.80;;;;;;4938122;29;20562;-71
2022/09/14 12:39:32;;;;;;;4.07;3.10;;;25.60;67.60;;;;;;4973283;28;20437;-71
2022/09/14 12:42:22;;;;;;;4.70;3.00;;;25.60;67.60;;;;;;4970218;28;20426;-73
2022/09/14 12:44:51;;;;;;;3.00;2.47;;;25.60;67.70;;;;;;4942234;28;20470;-71
2022/09/14 12:47:34;;;;;;;3.20;3.00;;;25.60;67.80;;;;;;4992479;28;20475;-72
2022/09/14 12:50:32;;;;;;;3.33;3.07;;;25.60;67.70;;;;;;4975853;28;20425;-72
2022/09/14 12:53:05;;;;;;;2.97;2.43;;;25.70;67.70;;;;;;4931320;29;21558;-72
2022/09/14 12:56:06;;;;;;;4.63;2.63;;;25.70;67.60;;;;;;4915924;29;20429;-73
2022/09/14 12:59:11;;;;;;;4.60;3.30;;;25.70;67.90;;;;;;4892461;29;20433;-72
2022/09/14 13:02:24;;;;;;;3.87;2.90;;;25.60;68.30;;;;;;4896936;29;20425;-70
2022/09/14 13:04:56;;;;;;;6.20;2.87;;;25.60;68.90;;;;;;4896978;29;20499;-71
2022/09/14 13:07:30;;;;;;;3.20;2.90;;;25.40;69.60;;;;;;4897916;29;20458;-72
2022/09/14 13:09:58;;;;;;;4.60;3.13;;;25.40;70.30;;;;;;4912347;29;20503;-72
2022/09/14 13:12:40;;;;;;;4.47;2.90;;;25.30;70.60;;;;;;4896605;29;20425;-73
2022/09/14 13:15:35;;;;;;;4.53;3.20;;;25.30;71.40;;;;;;4909088;29;20440;-72
2022/09/14 13:18:21;;;;;;;4.20;3.53;;;25.20;71.70;;;;;;4915204;29;20910;-71
2022/09/14 13:20:58;;;;;;;4.07;3.67;;;25.30;71.70;;;;;;4915099;29;20882;-71
2022/09/14 13:23:40;;;;;;;4.23;3.13;;;25.10;72.50;;;;;;4919686;29;20434;-71
2022/09/14 13:26:29;;;;;;;5.20;3.27;;;25.00;73.10;;;;;;4934488;29;20475;-72
2022/09/14 13:28:58;;;;;;;4.17;3.03;;;24.90;73.40;;;;;;4945917;28;20592;-72
2022/09/14 13:31:38;;;;;;;3.17;2.80;;;25.00;73.10;;;;;;4973049;28;20866;-71
2022/09/14 13:34:05;;;;;;;3.27;2.97;;;25.00;73.20;;;;;;4996422;28;20536;-71
2022/09/14 13:36:39;;;;;;;3.33;3.03;;;24.90;73.40;;;;;;5000587;28;20891;-71
2022/09/14 13:39:22;;;;;;;3.00;2.80;;;24.80;74.10;;;;;;5018888;28;20415;-72
2022/09/14 13:41:50;;;;;;;3.80;2.70;;;24.80;73.90;;;;;;5018563;28;21022;-73
2022/09/14 13:44:20;;;;;;;2.83;2.63;;;25.00;73.10;;;;;;5026190;28;20513;-73
2022/09/14 13:46:49;;;;;;;3.80;2.60;;;25.10;72.40;;;;;;5027313;28;20925;-71
2022/09/14 13:49:17;;;;;;;6.47;3.10;;;25.30;71.70;;;;;;5030913;28;20427;-71
2022/09/14 13:51:44;;;;;;;2.80;2.57;;;25.30;71.30;;;;;;5018103;28;20436;-72
2022/09/14 13:54:22;;;;;;;4.93;2.77;;;25.40;70.90;;;;;;5017041;28;20408;-71
2022/09/14 13:57:10;;;;;;;3.20;2.40;;;25.40;70.90;;;;;;5018493;28;20437;-71
2022/09/14 14:00:16;;;;;;;3.60;3.10;;;25.50;70.50;;;;;;5030738;28;20893;-72
2022/09/14 14:03:17;;;;;;;5.27;2.80;;;25.50;70.20;;;;;;5035208;28;20431;-72
2022/09/14 14:05:43;;;;;;;3.97;2.73;;;25.60;70.10;;;;;;5015819;28;20465;-72
2022/09/14 14:08:30;;;;;;;3.70;2.80;;;25.60;69.90;;;;;;5028089;28;20435;-72
2022/09/14 14:10:59;;;;;;;3.50;2.30;;;25.60;69.70;;;;;;5030562;28;20177;-73
2022/09/14 14:13:28;;;;;;;8.93;3.00;;;25.70;69.50;;;;;;5032000;28;20408;-72
2022/09/14 14:16:19;;;;;;;4.03;2.90;;;25.70;69.40;;;;;;5034852;28;20427;-73
2022/09/14 14:19:01;;;;;;;3.37;3.07;;;25.70;69.30;;;;;;5035138;28;20923;-72
2022/09/14 14:21:30;;;;;;;6.00;2.57;;;25.70;69.20;;;;;;5035458;28;20951;-74
2022/09/14 14:24:31;;;;;;;4.03;2.40;;;25.70;69.10;;;;;;4981475;28;20428;-74
2022/09/14 14:26:58;;;;;;;3.33;2.77;;;25.70;68.90;;;;;;4997890;28;20439;-74
2022/09/14 14:29:26;;;;;;;3.70;2.70;;;25.80;68.80;;;;;;5014475;28;20448;-73
2022/09/14 14:31:55;;;;;;;5.27;2.63;;;25.80;68.60;;;;;;4997911;28;20423;-73
2022/09/14 14:34:27;;;;;;;2.77;2.20;;;25.80;68.40;;;;;;4998056;28;20428;-73
2022/09/14 14:36:56;;;;;;;3.17;2.97;;;25.70;68.50;;;;;;5014622;28;20981;-70
